sensor_id;sensor_type;location;lat;lon;timestamp;temperature;humidity
38325;DHT22;24126;52.672;13.622;2022-08-21T00:01:34;24.80;75.30
38325;DHT22;24126;52.672;13.622;2022-08-21T00:04:05;24.70;75.10
38325;DHT22;24126;52.672;13.622;2022-08-21T00:06:33;24.70;75.10
38325;DHT22;24126;52.672;13.622;2022-08-21T00:09:00;24.70;75.10
38325;DHT22;24126;52.672;13.622;2022-08-21T00:11:28;24.70;75.00
38325;DHT22;24126;52.672;13.622;2022-08-21T00:13:55;24.70;75.00
38325;DHT22;24126;52.672;13.622;2022-08-21T00:16:22;24.70;75.00
38325;DHT22;24126;52.672;13.622;2022-08-21T00:18:49;24.70;74.90
38325;DHT22;24126;52.672;13.622;2022-08-21T00:21:17;24.70;74.80
38325;DHT22;24126;52.672;13.622;2022-08-21T00:23:44;24.70;74.70
38325;DHT22;24126;52.672;13.622;2022-08-21T00:26:11;24.60;74.60
38325;DHT22;24126;52.672;13.622;2022-08-21T00:28:39;24.60;74.60
38325;DHT22;24126;52.672;13.622;2022-08-21T00:31:06;24.60;74.60
38325;DHT22;24126;52.672;13.622;2022-08-21T00:33:33;24.60;74.50
38325;DHT22;24126;52.672;13.622;2022-08-21T00:36:00;24.60;74.40
38325;DHT22;24126;52.672;13.622;2022-08-21T00:38:28;24.60;74.30
38325;DHT22;24126;52.672;13.622;2022-08-21T00:40:58;24.60;74.20
38325;DHT22;24126;52.672;13.622;2022-08-21T00:43:27;24.50;74.00
38325;DHT22;24126;52.672;13.622;2022-08-21T00:45:55;24.50;73.90
38325;DHT22;24126;52.672;13.622;2022-08-21T00:48:22;24.50;73.60
38325;DHT22;24126;52.672;13.622;2022-08-21T00:50:52;24.40;73.30
38325;DHT22;24126;52.672;13.622;2022-08-21T00:53:20;24.40;73.30
38325;DHT22;24126;52.672;13.622;2022-08-21T00:55:47;24.40;73.40
38325;DHT22;24126;52.672;13.622;2022-08-21T00:58:14;24.40;73.30
38325;DHT22;24126;52.672;13.622;2022-08-21T01:00:43;24.30;73.20
38325;DHT22;24126;52.672;13.622;2022-08-21T01:03:12;24.30;73.20
38325;DHT22;24126;52.672;13.622;2022-08-21T01:05:40;24.30;73.20
38325;DHT22;24126;52.672;13.622;2022-08-21T01:08:08;24.30;73.20
38325;DHT22;24126;52.672;13.622;2022-08-21T01:10:36;24.30;73.20
38325;DHT22;24126;52.672;13.622;2022-08-21T01:13:04;24.30;73.20
38325;DHT22;24126;52.672;13.622;2022-08-21T01:15:33;24.20;73.10
38325;DHT22;24126;52.672;13.622;2022-08-21T01:18:05;24.20;73.10
38325;DHT22;24126;52.672;13.622;2022-08-21T01:20:33;24.20;73.00
38325;DHT22;24126;52.672;13.622;2022-08-21T01:23:02;24.20;72.90
38325;DHT22;24126;52.672;13.622;2022-08-21T01:25:29;24.10;72.70
38325;DHT22;24126;52.672;13.622;2022-08-21T01:27:57;24.10;72.80
38325;DHT22;24126;52.672;13.622;2022-08-21T01:30:26;24.10;72.60
38325;DHT22;24126;52.672;13.622;2022-08-21T01:32:54;24.10;72.60
38325;DHT22;24126;52.672;13.622;2022-08-21T01:35:22;24.10;72.60
38325;DHT22;24126;52.672;13.622;2022-08-21T01:37:49;24.10;72.50
38325;DHT22;24126;52.672;13.622;2022-08-21T01:40:16;24.10;72.50
38325;DHT22;24126;52.672;13.622;2022-08-21T01:42:44;24.10;72.50
38325;DHT22;24126;52.672;13.622;2022-08-21T01:45:11;24.10;72.50
38325;DHT22;24126;52.672;13.622;2022-08-21T01:47:39;24.10;72.60
38325;DHT22;24126;52.672;13.622;2022-08-21T01:50:07;24.10;72.60
38325;DHT22;24126;52.672;13.622;2022-08-21T01:52:35;24.00;72.50
38325;DHT22;24126;52.672;13.622;2022-08-21T01:55:03;24.00;72.60
38325;DHT22;24126;52.672;13.622;2022-08-21T01:57:31;24.00;72.60
38325;DHT22;24126;52.672;13.622;2022-08-21T01:59:58;24.00;72.60
38325;DHT22;24126;52.672;13.622;2022-08-21T02:02:25;24.00;72.60
38325;DHT22;24126;52.672;13.622;2022-08-21T02:04:53;24.00;72.50
38325;DHT22;24126;52.672;13.622;2022-08-21T02:07:20;24.00;72.50
38325;DHT22;24126;52.672;13.622;2022-08-21T02:09:47;24.00;72.50
38325;DHT22;24126;52.672;13.622;2022-08-21T02:12:15;23.90;72.30
38325;DHT22;24126;52.672;13.622;2022-08-21T02:14:42;23.90;72.30
38325;DHT22;24126;52.672;13.622;2022-08-21T02:17:09;23.90;72.20
38325;DHT22;24126;52.672;13.622;2022-08-21T02:19:37;23.90;72.20
38325;DHT22;24126;52.672;13.622;2022-08-21T02:22:04;23.80;72.00
38325;DHT22;24126;52.672;13.622;2022-08-21T02:24:31;23.80;72.00
38325;DHT22;24126;52.672;13.622;2022-08-21T02:26:59;23.80;72.00
38325;DHT22;24126;52.672;13.622;2022-08-21T02:29:26;23.80;71.80
38325;DHT22;24126;52.672;13.622;2022-08-21T02:31:54;23.80;71.80
38325;DHT22;24126;52.672;13.622;2022-08-21T02:34:21;23.70;71.80
38325;DHT22;24126;52.672;13.622;2022-08-21T02:36:48;23.70;71.80
38325;DHT22;24126;52.672;13.622;2022-08-21T02:39:16;23.70;71.80
38325;DHT22;24126;52.672;13.622;2022-08-21T02:41:43;23.70;71.80
38325;DHT22;24126;52.672;13.622;2022-08-21T02:44:10;23.60;71.80
38325;DHT22;24126;52.672;13.622;2022-08-21T02:46:37;23.60;71.80
38325;DHT22;24126;52.672;13.622;2022-08-21T02:49:04;23.60;71.80
38325;DHT22;24126;52.672;13.622;2022-08-21T02:51:32;23.60;71.80
38325;DHT22;24126;52.672;13.622;2022-08-21T02:53:59;23.60;71.80
38325;DHT22;24126;52.672;13.622;2022-08-21T02:56:26;23.60;71.80
38325;DHT22;24126;52.672;13.622;2022-08-21T02:58:53;23.60;71.70
38325;DHT22;24126;52.672;13.622;2022-08-21T03:01:21;23.50;71.60
38325;DHT22;24126;52.672;13.622;2022-08-21T03:03:48;23.50;71.60
38325;DHT22;24126;52.672;13.622;2022-08-21T03:06:17;23.50;71.80
38325;DHT22;24126;52.672;13.622;2022-08-21T03:08:45;23.50;71.80
38325;DHT22;24126;52.672;13.622;2022-08-21T03:11:12;23.50;71.90
38325;DHT22;24126;52.672;13.622;2022-08-21T03:13:40;23.40;72.00
38325;DHT22;24126;52.672;13.622;2022-08-21T03:16:07;23.40;72.00
38325;DHT22;24126;52.672;13.622;2022-08-21T03:18:35;23.40;72.10
38325;DHT22;24126;52.672;13.622;2022-08-21T03:21:02;23.40;72.90
38325;DHT22;24126;52.672;13.622;2022-08-21T03:23:30;23.30;72.20
38325;DHT22;24126;52.672;13.622;2022-08-21T03:25:58;23.30;72.40
38325;DHT22;24126;52.672;13.622;2022-08-21T03:28:25;23.30;72.30
38325;DHT22;24126;52.672;13.622;2022-08-21T03:30:53;23.30;72.20
38325;DHT22;24126;52.672;13.622;2022-08-21T03:33:20;23.30;72.20
38325;DHT22;24126;52.672;13.622;2022-08-21T03:35:53;23.20;72.20
38325;DHT22;24126;52.672;13.622;2022-08-21T03:38:21;23.20;72.10
38325;DHT22;24126;52.672;13.622;2022-08-21T03:40:48;23.20;72.20
38325;DHT22;24126;52.672;13.622;2022-08-21T03:43:16;23.10;72.20
38325;DHT22;24126;52.672;13.622;2022-08-21T03:45:43;23.10;72.20
38325;DHT22;24126;52.672;13.622;2022-08-21T03:48:10;23.10;72.10
38325;DHT22;24126;52.672;13.622;2022-08-21T03:50:39;23.10;72.20
38325;DHT22;24126;52.672;13.622;2022-08-21T03:53:10;23.10;72.10
38325;DHT22;24126;52.672;13.622;2022-08-21T03:55:38;23.00;72.00
38325;DHT22;24126;52.672;13.622;2022-08-21T03:58:05;23.10;72.10
38325;DHT22;24126;52.672;13.622;2022-08-21T04:00:32;23.00;71.90
38325;DHT22;24126;52.672;13.622;2022-08-21T04:03:00;23.00;72.10
38325;DHT22;24126;52.672;13.622;2022-08-21T04:05:27;23.00;72.00
38325;DHT22;24126;52.672;13.622;2022-08-21T04:08:03;22.90;72.70
38325;DHT22;24126;52.672;13.622;2022-08-21T04:10:32;22.90;72.10
38325;DHT22;24126;52.672;13.622;2022-08-21T04:13:00;22.90;72.20
38325;DHT22;24126;52.672;13.622;2022-08-21T04:15:27;22.90;72.30
38325;DHT22;24126;52.672;13.622;2022-08-21T04:17:55;22.90;72.20
38325;DHT22;24126;52.672;13.622;2022-08-21T04:20:22;22.90;72.10
38325;DHT22;24126;52.672;13.622;2022-08-21T04:22:50;22.90;72.10
38325;DHT22;24126;52.672;13.622;2022-08-21T04:25:18;22.80;72.20
38325;DHT22;24126;52.672;13.622;2022-08-21T04:27:46;22.80;72.30
38325;DHT22;24126;52.672;13.622;2022-08-21T04:30:14;22.80;72.20
38325;DHT22;24126;52.672;13.622;2022-08-21T04:32:42;22.80;72.20
38325;DHT22;24126;52.672;13.622;2022-08-21T04:35:11;22.80;72.10
38325;DHT22;24126;52.672;13.622;2022-08-21T04:37:38;22.80;72.20
38325;DHT22;24126;52.672;13.622;2022-08-21T04:40:06;22.80;72.20
38325;DHT22;24126;52.672;13.622;2022-08-21T04:42:41;22.80;72.10
38325;DHT22;24126;52.672;13.622;2022-08-21T04:45:08;22.80;72.00
38325;DHT22;24126;52.672;13.622;2022-08-21T04:47:36;22.80;72.10
38325;DHT22;24126;52.672;13.622;2022-08-21T04:50:03;22.80;72.10
38325;DHT22;24126;52.672;13.622;2022-08-21T04:52:30;22.80;72.00
38325;DHT22;24126;52.672;13.622;2022-08-21T04:54:58;22.80;71.90
38325;DHT22;24126;52.672;13.622;2022-08-21T04:57:25;22.80;72.00
38325;DHT22;24126;52.672;13.622;2022-08-21T04:59:52;22.80;71.80
38325;DHT22;24126;52.672;13.622;2022-08-21T05:02:20;22.80;71.90
38325;DHT22;24126;52.672;13.622;2022-08-21T05:04:49;22.80;71.90
38325;DHT22;24126;52.672;13.622;2022-08-21T05:07:19;22.80;71.90
38325;DHT22;24126;52.672;13.622;2022-08-21T05:09:47;22.80;71.90
38325;DHT22;24126;52.672;13.622;2022-08-21T05:12:15;22.80;71.80
38325;DHT22;24126;52.672;13.622;2022-08-21T05:14:42;22.80;71.70
38325;DHT22;24126;52.672;13.622;2022-08-21T05:17:10;22.80;71.60
38325;DHT22;24126;52.672;13.622;2022-08-21T05:19:37;22.80;71.60
38325;DHT22;24126;52.672;13.622;2022-08-21T05:22:04;22.90;71.70
38325;DHT22;24126;52.672;13.622;2022-08-21T05:24:32;22.90;71.60
38325;DHT22;24126;52.672;13.622;2022-08-21T05:26:59;22.90;71.60
38325;DHT22;24126;52.672;13.622;2022-08-21T05:29:26;22.90;71.50
38325;DHT22;24126;52.672;13.622;2022-08-21T05:31:56;22.90;71.40
38325;DHT22;24126;52.672;13.622;2022-08-21T05:34:24;22.90;71.40
38325;DHT22;24126;52.672;13.622;2022-08-21T05:36:51;22.90;71.40
38325;DHT22;24126;52.672;13.622;2022-08-21T05:39:18;22.90;71.40
38325;DHT22;24126;52.672;13.622;2022-08-21T05:41:46;22.90;71.40
38325;DHT22;24126;52.672;13.622;2022-08-21T05:44:13;22.90;71.30
38325;DHT22;24126;52.672;13.622;2022-08-21T05:46:40;23.00;71.20
38325;DHT22;24126;52.672;13.622;2022-08-21T05:49:08;23.00;71.20
38325;DHT22;24126;52.672;13.622;2022-08-21T05:51:35;23.00;71.10
38325;DHT22;24126;52.672;13.622;2022-08-21T05:54:02;23.00;71.10
38325;DHT22;24126;52.672;13.622;2022-08-21T05:56:31;23.00;71.70
38325;DHT22;24126;52.672;13.622;2022-08-21T05:58:58;23.00;70.70
38325;DHT22;24126;52.672;13.622;2022-08-21T06:01:26;23.00;70.70
38325;DHT22;24126;52.672;13.622;2022-08-21T06:03:54;23.10;70.80
38325;DHT22;24126;52.672;13.622;2022-08-21T06:06:21;23.00;70.50
38325;DHT22;24126;52.672;13.622;2022-08-21T06:08:48;23.10;70.60
38325;DHT22;24126;52.672;13.622;2022-08-21T06:11:16;23.10;70.60
38325;DHT22;24126;52.672;13.622;2022-08-21T06:13:43;23.10;70.40
38325;DHT22;24126;52.672;13.622;2022-08-21T06:16:11;23.10;70.40
38325;DHT22;24126;52.672;13.622;2022-08-21T06:18:39;23.10;70.30
38325;DHT22;24126;52.672;13.622;2022-08-21T06:21:07;23.10;70.30
38325;DHT22;24126;52.672;13.622;2022-08-21T06:23:35;23.10;70.30
38325;DHT22;24126;52.672;13.622;2022-08-21T06:26:02;23.10;70.20
38325;DHT22;24126;52.672;13.622;2022-08-21T06:28:31;23.10;70.10
38325;DHT22;24126;52.672;13.622;2022-08-21T06:30:58;23.10;70.00
38325;DHT22;24126;52.672;13.622;2022-08-21T06:33:25;23.20;69.90
38325;DHT22;24126;52.672;13.622;2022-08-21T06:35:52;23.20;69.90
38325;DHT22;24126;52.672;13.622;2022-08-21T06:38:20;23.30;70.00
38325;DHT22;24126;52.672;13.622;2022-08-21T06:40:47;23.30;69.80
38325;DHT22;24126;52.672;13.622;2022-08-21T06:43:15;23.30;69.60
38325;DHT22;24126;52.672;13.622;2022-08-21T06:45:43;23.40;69.50
38325;DHT22;24126;52.672;13.622;2022-08-21T06:48:10;23.40;69.50
38325;DHT22;24126;52.672;13.622;2022-08-21T06:50:38;23.50;69.60
38325;DHT22;24126;52.672;13.622;2022-08-21T06:53:06;23.50;69.40
38325;DHT22;24126;52.672;13.622;2022-08-21T06:55:34;23.60;69.30
38325;DHT22;24126;52.672;13.622;2022-08-21T06:58:02;23.60;69.20
38325;DHT22;24126;52.672;13.622;2022-08-21T07:00:29;23.70;69.10
38325;DHT22;24126;52.672;13.622;2022-08-21T07:02:57;23.80;68.80
38325;DHT22;24126;52.672;13.622;2022-08-21T07:05:25;23.80;68.80
38325;DHT22;24126;52.672;13.622;2022-08-21T07:07:53;23.90;68.40
38325;DHT22;24126;52.672;13.622;2022-08-21T07:10:20;24.00;68.10
38325;DHT22;24126;52.672;13.622;2022-08-21T07:12:47;24.00;67.80
38325;DHT22;24126;52.672;13.622;2022-08-21T07:15:15;24.10;67.80
38325;DHT22;24126;52.672;13.622;2022-08-21T07:17:42;24.20;67.70
38325;DHT22;24126;52.672;13.622;2022-08-21T07:20:09;24.20;67.30
38325;DHT22;24126;52.672;13.622;2022-08-21T07:22:36;24.30;67.10
38325;DHT22;24126;52.672;13.622;2022-08-21T07:25:05;24.40;66.80
38325;DHT22;24126;52.672;13.622;2022-08-21T07:27:32;24.40;66.50
38325;DHT22;24126;52.672;13.622;2022-08-21T07:29:59;24.50;66.30
38325;DHT22;24126;52.672;13.622;2022-08-21T07:32:26;24.60;65.80
38325;DHT22;24126;52.672;13.622;2022-08-21T07:34:53;24.60;65.40
38325;DHT22;24126;52.672;13.622;2022-08-21T07:37:21;24.70;65.30
38325;DHT22;24126;52.672;13.622;2022-08-21T07:39:48;24.70;65.20
38325;DHT22;24126;52.672;13.622;2022-08-21T07:42:16;24.80;65.00
38325;DHT22;24126;52.672;13.622;2022-08-21T07:44:44;24.90;64.90
38325;DHT22;24126;52.672;13.622;2022-08-21T07:47:11;24.90;64.40
38325;DHT22;24126;52.672;13.622;2022-08-21T07:49:38;25.00;64.20
38325;DHT22;24126;52.672;13.622;2022-08-21T07:52:05;25.10;64.00
38325;DHT22;24126;52.672;13.622;2022-08-21T07:54:33;25.20;63.90
38325;DHT22;24126;52.672;13.622;2022-08-21T07:57:00;25.30;63.50
38325;DHT22;24126;52.672;13.622;2022-08-21T07:59:28;25.30;63.10
38325;DHT22;24126;52.672;13.622;2022-08-21T08:01:55;25.40;62.70
38325;DHT22;24126;52.672;13.622;2022-08-21T08:04:23;25.40;62.40
38325;DHT22;24126;52.672;13.622;2022-08-21T08:06:50;25.50;62.30
38325;DHT22;24126;52.672;13.622;2022-08-21T08:09:17;25.50;61.80
38325;DHT22;24126;52.672;13.622;2022-08-21T08:11:45;25.60;61.90
38325;DHT22;24126;52.672;13.622;2022-08-21T08:14:12;25.60;61.60
38325;DHT22;24126;52.672;13.622;2022-08-21T08:16:41;25.70;61.40
38325;DHT22;24126;52.672;13.622;2022-08-21T08:19:08;25.70;60.90
38325;DHT22;24126;52.672;13.622;2022-08-21T08:21:35;25.70;60.90
38325;DHT22;24126;52.672;13.622;2022-08-21T08:24:04;25.70;60.40
38325;DHT22;24126;52.672;13.622;2022-08-21T08:26:32;25.80;60.30
38325;DHT22;24126;52.672;13.622;2022-08-21T08:28:59;25.80;60.40
38325;DHT22;24126;52.672;13.622;2022-08-21T08:31:26;25.90;60.30
38325;DHT22;24126;52.672;13.622;2022-08-21T08:33:53;25.90;60.00
38325;DHT22;24126;52.672;13.622;2022-08-21T08:36:20;26.00;59.40
38325;DHT22;24126;52.672;13.622;2022-08-21T08:38:57;26.10;59.50
38325;DHT22;24126;52.672;13.622;2022-08-21T08:41:25;26.10;59.20
38325;DHT22;24126;52.672;13.622;2022-08-21T08:43:53;26.20;59.00
38325;DHT22;24126;52.672;13.622;2022-08-21T08:46:32;26.30;58.90
38325;DHT22;24126;52.672;13.622;2022-08-21T08:49:13;26.30;58.90
38325;DHT22;24126;52.672;13.622;2022-08-21T08:51:49;26.40;58.40
38325;DHT22;24126;52.672;13.622;2022-08-21T08:54:20;26.60;58.20
38325;DHT22;24126;52.672;13.622;2022-08-21T08:56:50;26.70;58.30
38325;DHT22;24126;52.672;13.622;2022-08-21T08:59:18;26.80;58.10
38325;DHT22;24126;52.672;13.622;2022-08-21T09:01:47;26.90;57.50
38325;DHT22;24126;52.672;13.622;2022-08-21T09:04:17;27.00;57.10
38325;DHT22;24126;52.672;13.622;2022-08-21T09:07:01;27.10;56.70
38325;DHT22;24126;52.672;13.622;2022-08-21T09:12:12;27.20;56.00
38325;DHT22;24126;52.672;13.622;2022-08-21T09:15:28;27.20;55.70
38325;DHT22;24126;52.672;13.622;2022-08-21T09:22:38;27.20;55.10
38325;DHT22;24126;52.672;13.622;2022-08-21T09:25:18;27.30;55.20
38325;DHT22;24126;52.672;13.622;2022-08-21T09:27:46;27.30;55.10
38325;DHT22;24126;52.672;13.622;2022-08-21T09:30:14;27.30;54.90
38325;DHT22;24126;52.672;13.622;2022-08-21T09:32:41;27.30;54.60
38325;DHT22;24126;52.672;13.622;2022-08-21T09:35:10;27.40;54.40
38325;DHT22;24126;52.672;13.622;2022-08-21T09:40:43;27.40;54.20
38325;DHT22;24126;52.672;13.622;2022-08-21T09:45:39;27.40;52.90
38325;DHT22;24126;52.672;13.622;2022-08-21T09:48:18;27.40;53.60
38325;DHT22;24126;52.672;13.622;2022-08-21T09:50:45;27.40;53.60
38325;DHT22;24126;52.672;13.622;2022-08-21T09:53:15;27.40;53.50
38325;DHT22;24126;52.672;13.622;2022-08-21T09:55:54;27.30;53.60
38325;DHT22;24126;52.672;13.622;2022-08-21T09:58:40;27.40;53.80
38325;DHT22;24126;52.672;13.622;2022-08-21T10:01:12;27.40;53.60
38325;DHT22;24126;52.672;13.622;2022-08-21T10:03:40;27.30;53.20
38325;DHT22;24126;52.672;13.622;2022-08-21T10:06:08;27.40;52.70
38325;DHT22;24126;52.672;13.622;2022-08-21T10:08:37;27.40;52.80
38325;DHT22;24126;52.672;13.622;2022-08-21T10:11:10;27.40;52.90
38325;DHT22;24126;52.672;13.622;2022-08-21T10:19:10;27.50;52.60
38325;DHT22;24126;52.672;13.622;2022-08-21T10:21:57;27.50;52.20
38325;DHT22;24126;52.672;13.622;2022-08-21T10:29:38;27.60;51.70
38325;DHT22;24126;52.672;13.622;2022-08-21T10:34:40;27.70;52.00
38325;DHT22;24126;52.672;13.622;2022-08-21T10:37:18;27.70;52.00
38325;DHT22;24126;52.672;13.622;2022-08-21T10:39:49;27.80;52.10
38325;DHT22;24126;52.672;13.622;2022-08-21T10:42:25;27.90;51.60
38325;DHT22;24126;52.672;13.622;2022-08-21T10:45:08;27.90;51.60
38325;DHT22;24126;52.672;13.622;2022-08-21T10:47:46;27.90;51.10
38325;DHT22;24126;52.672;13.622;2022-08-21T10:55:51;28.00;51.70
38325;DHT22;24126;52.672;13.622;2022-08-21T10:58:24;28.00;50.60
38325;DHT22;24126;52.672;13.622;2022-08-21T11:00:53;28.00;50.80
38325;DHT22;24126;52.672;13.622;2022-08-21T11:03:33;28.00;50.80
38325;DHT22;24126;52.672;13.622;2022-08-21T11:06:45;28.10;50.60
38325;DHT22;24126;52.672;13.622;2022-08-21T11:08:56;28.10;51.00
38325;DHT22;24126;52.672;13.622;2022-08-21T11:11:27;28.20;50.50
38325;DHT22;24126;52.672;13.622;2022-08-21T11:13:58;28.30;50.90
38325;DHT22;24126;52.672;13.622;2022-08-21T11:18:55;28.50;50.00
38325;DHT22;24126;52.672;13.622;2022-08-21T11:21:59;28.60;49.70
38325;DHT22;24126;52.672;13.622;2022-08-21T11:24:28;28.70;49.20
38325;DHT22;24126;52.672;13.622;2022-08-21T11:29:30;29.00;48.50
38325;DHT22;24126;52.672;13.622;2022-08-21T11:37:20;29.40;47.70
38325;DHT22;24126;52.672;13.622;2022-08-21T11:50:18;29.70;46.30
38325;DHT22;24126;52.672;13.622;2022-08-21T11:52:45;29.80;45.60
38325;DHT22;24126;52.672;13.622;2022-08-21T11:55:35;29.80;44.70
38325;DHT22;24126;52.672;13.622;2022-08-21T11:58:05;29.80;44.90
38325;DHT22;24126;52.672;13.622;2022-08-21T12:00:42;29.70;44.90
38325;DHT22;24126;52.672;13.622;2022-08-21T12:05:38;29.70;44.70
38325;DHT22;24126;52.672;13.622;2022-08-21T12:08:14;29.80;44.80
38325;DHT22;24126;52.672;13.622;2022-08-21T12:10:45;29.90;44.80
38325;DHT22;24126;52.672;13.622;2022-08-21T12:13:25;29.80;44.00
38325;DHT22;24126;52.672;13.622;2022-08-21T12:15:52;29.70;43.10
38325;DHT22;24126;52.672;13.622;2022-08-21T12:18:21;29.70;44.00
38325;DHT22;24126;52.672;13.622;2022-08-21T12:26:33;29.80;44.50
38325;DHT22;24126;52.672;13.622;2022-08-21T12:29:05;30.00;44.70
38325;DHT22;24126;52.672;13.622;2022-08-21T12:31:35;30.10;44.30
38325;DHT22;24126;52.672;13.622;2022-08-21T12:34:02;30.20;43.60
38325;DHT22;24126;52.672;13.622;2022-08-21T12:36:39;30.40;43.10
38325;DHT22;24126;52.672;13.622;2022-08-21T12:39:11;30.40;43.20
38325;DHT22;24126;52.672;13.622;2022-08-21T12:44:10;30.40;42.40
38325;DHT22;24126;52.672;13.622;2022-08-21T12:46:51;30.40;42.40
38325;DHT22;24126;52.672;13.622;2022-08-21T12:49:26;30.30;42.00
38325;DHT22;24126;52.672;13.622;2022-08-21T12:51:55;30.20;42.20
38325;DHT22;24126;52.672;13.622;2022-08-21T12:54:25;30.10;41.30
38325;DHT22;24126;52.672;13.622;2022-08-21T12:57:00;29.90;41.00
38325;DHT22;24126;52.672;13.622;2022-08-21T12:59:28;29.90;41.10
38325;DHT22;24126;52.672;13.622;2022-08-21T13:01:55;29.80;41.40
38325;DHT22;24126;52.672;13.622;2022-08-21T13:04:32;29.80;40.90
38325;DHT22;24126;52.672;13.622;2022-08-21T13:07:00;29.90;40.40
38325;DHT22;24126;52.672;13.622;2022-08-21T13:09:28;29.90;40.90
38325;DHT22;24126;52.672;13.622;2022-08-21T13:11:56;29.90;41.30
38325;DHT22;24126;52.672;13.622;2022-08-21T13:16:58;29.90;40.70
38325;DHT22;24126;52.672;13.622;2022-08-21T13:19:26;30.00;40.30
38325;DHT22;24126;52.672;13.622;2022-08-21T13:21:55;30.00;39.70
38325;DHT22;24126;52.672;13.622;2022-08-21T13:24:24;29.90;39.20
38325;DHT22;24126;52.672;13.622;2022-08-21T13:26:51;29.90;39.60
38325;DHT22;24126;52.672;13.622;2022-08-21T13:29:21;30.00;38.20
38325;DHT22;24126;52.672;13.622;2022-08-21T13:31:56;30.00;38.80
38325;DHT22;24126;52.672;13.622;2022-08-21T13:34:24;30.00;38.00
38325;DHT22;24126;52.672;13.622;2022-08-21T13:36:54;29.90;37.20
38325;DHT22;24126;52.672;13.622;2022-08-21T13:39:23;29.80;37.40
38325;DHT22;24126;52.672;13.622;2022-08-21T13:41:52;29.80;37.60
38325;DHT22;24126;52.672;13.622;2022-08-21T13:44:32;29.70;36.60
38325;DHT22;24126;52.672;13.622;2022-08-21T13:47:00;29.60;37.00
38325;DHT22;24126;52.672;13.622;2022-08-21T13:49:32;29.60;37.70
38325;DHT22;24126;52.672;13.622;2022-08-21T13:52:00;29.60;38.10
38325;DHT22;24126;52.672;13.622;2022-08-21T13:56:54;29.60;38.10
38325;DHT22;24126;52.672;13.622;2022-08-21T13:59:40;29.60;38.00
38325;DHT22;24126;52.672;13.622;2022-08-21T14:04:36;29.50;37.70
38325;DHT22;24126;52.672;13.622;2022-08-21T14:07:16;29.50;38.40
38325;DHT22;24126;52.672;13.622;2022-08-21T14:09:45;29.50;37.40
38325;DHT22;24126;52.672;13.622;2022-08-21T14:12:13;29.50;38.20
38325;DHT22;24126;52.672;13.622;2022-08-21T14:14:41;29.40;37.10
38325;DHT22;24126;52.672;13.622;2022-08-21T14:17:10;29.40;36.20
38325;DHT22;24126;52.672;13.622;2022-08-21T14:19:43;29.30;37.70
38325;DHT22;24126;52.672;13.622;2022-08-21T14:24:50;29.20;37.10
38325;DHT22;24126;52.672;13.622;2022-08-21T14:27:26;29.10;37.10
38325;DHT22;24126;52.672;13.622;2022-08-21T14:29:57;29.10;37.20
38325;DHT22;24126;52.672;13.622;2022-08-21T14:32:25;29.00;37.10
38325;DHT22;24126;52.672;13.622;2022-08-21T14:34:56;29.00;37.50
38325;DHT22;24126;52.672;13.622;2022-08-21T14:37:23;29.00;37.00
38325;DHT22;24126;52.672;13.622;2022-08-21T14:39:51;29.00;37.70
38325;DHT22;24126;52.672;13.622;2022-08-21T14:42:19;29.00;37.10
38325;DHT22;24126;52.672;13.622;2022-08-21T14:44:46;29.00;37.50
38325;DHT22;24126;52.672;13.622;2022-08-21T14:47:14;29.00;38.20
38325;DHT22;24126;52.672;13.622;2022-08-21T14:49:41;29.00;38.10
38325;DHT22;24126;52.672;13.622;2022-08-21T14:52:08;28.90;37.90
38325;DHT22;24126;52.672;13.622;2022-08-21T14:54:35;28.90;38.20
38325;DHT22;24126;52.672;13.622;2022-08-21T14:57:04;28.80;39.30
38325;DHT22;24126;52.672;13.622;2022-08-21T14:59:32;28.80;38.40
38325;DHT22;24126;52.672;13.622;2022-08-21T15:02:00;28.80;38.30
38325;DHT22;24126;52.672;13.622;2022-08-21T15:04:27;28.70;38.30
38325;DHT22;24126;52.672;13.622;2022-08-21T15:06:54;28.70;38.50
38325;DHT22;24126;52.672;13.622;2022-08-21T15:09:22;28.70;38.10
38325;DHT22;24126;52.672;13.622;2022-08-21T15:11:51;28.70;38.70
38325;DHT22;24126;52.672;13.622;2022-08-21T15:14:20;28.70;38.60
38325;DHT22;24126;52.672;13.622;2022-08-21T15:16:47;28.70;39.00
38325;DHT22;24126;52.672;13.622;2022-08-21T15:19:15;28.70;38.50
38325;DHT22;24126;52.672;13.622;2022-08-21T15:21:42;28.70;39.00
38325;DHT22;24126;52.672;13.622;2022-08-21T15:24:09;28.70;38.90
38325;DHT22;24126;52.672;13.622;2022-08-21T15:26:37;28.70;39.10
38325;DHT22;24126;52.672;13.622;2022-08-21T15:29:04;28.60;39.10
38325;DHT22;24126;52.672;13.622;2022-08-21T15:31:32;28.60;38.70
38325;DHT22;24126;52.672;13.622;2022-08-21T15:34:00;28.60;39.10
38325;DHT22;24126;52.672;13.622;2022-08-21T15:36:28;28.60;39.20
38325;DHT22;24126;52.672;13.622;2022-08-21T15:38:55;28.60;39.50
38325;DHT22;24126;52.672;13.622;2022-08-21T15:41:22;28.50;39.40
38325;DHT22;24126;52.672;13.622;2022-08-21T15:43:50;28.50;39.60
38325;DHT22;24126;52.672;13.622;2022-08-21T15:46:18;28.50;39.60
38325;DHT22;24126;52.672;13.622;2022-08-21T15:48:46;28.50;39.50
38325;DHT22;24126;52.672;13.622;2022-08-21T15:51:14;28.50;39.10
38325;DHT22;24126;52.672;13.622;2022-08-21T15:53:42;28.50;39.20
38325;DHT22;24126;52.672;13.622;2022-08-21T15:56:23;28.50;39.30
38325;DHT22;24126;52.672;13.622;2022-08-21T15:58:51;28.50;39.50
38325;DHT22;24126;52.672;13.622;2022-08-21T16:01:20;28.40;39.00
38325;DHT22;24126;52.672;13.622;2022-08-21T16:03:47;28.40;39.70
38325;DHT22;24126;52.672;13.622;2022-08-21T16:06:15;28.40;39.40
38325;DHT22;24126;52.672;13.622;2022-08-21T16:08:42;28.30;39.50
38325;DHT22;24126;52.672;13.622;2022-08-21T16:11:10;28.30;39.50
38325;DHT22;24126;52.672;13.622;2022-08-21T16:13:39;28.30;39.60
38325;DHT22;24126;52.672;13.622;2022-08-21T16:16:11;28.20;39.90
38325;DHT22;24126;52.672;13.622;2022-08-21T16:18:39;28.20;40.00
38325;DHT22;24126;52.672;13.622;2022-08-21T16:21:07;28.10;40.10
38325;DHT22;24126;52.672;13.622;2022-08-21T16:23:35;28.10;40.70
38325;DHT22;24126;52.672;13.622;2022-08-21T16:26:04;28.00;41.30
38325;DHT22;24126;52.672;13.622;2022-08-21T16:28:31;28.00;42.40
38325;DHT22;24126;52.672;13.622;2022-08-21T16:31:00;27.90;42.40
38325;DHT22;24126;52.672;13.622;2022-08-21T16:33:36;27.90;42.60
38325;DHT22;24126;52.672;13.622;2022-08-21T16:36:04;27.80;44.10
38325;DHT22;24126;52.672;13.622;2022-08-21T16:38:32;27.80;45.00
38325;DHT22;24126;52.672;13.622;2022-08-21T16:41:01;27.60;45.80